createdAt,value
2022-12-27T00:00:10.486Z,11.10
2022-12-27T00:02:40.693Z,10.97
2022-12-27T00:05:12.187Z,11.37
2022-12-27T00:07:41.150Z,11.17
2022-12-27T00:10:11.499Z,10.40
2022-12-27T00:12:40.582Z,11.63
2022-12-27T00:15:10.379Z,11.13
2022-12-27T00:17:40.129Z,10.10
2022-12-27T00:20:11.568Z,10.30
2022-12-27T00:22:41.119Z,9.43
2022-12-27T00:25:10.881Z,8.93
2022-12-27T00:27:40.052Z,9.17
2022-12-27T00:30:10.436Z,8.47
2022-12-27T00:32:40.645Z,9.03
2022-12-27T00:35:10.206Z,9.00
2022-12-27T00:37:38.788Z,8.60
2022-12-27T00:40:10.471Z,8.43
2022-12-27T00:42:38.899Z,8.20
2022-12-27T00:45:10.077Z,8.40
2022-12-27T00:47:40.617Z,8.33
2022-12-27T00:50:10.029Z,8.07
2022-12-27T00:52:38.616Z,8.00
2022-12-27T00:55:07.675Z,8.13
2022-12-27T00:57:36.268Z,7.37
2022-12-27T01:00:10.055Z,8.17
2022-12-27T01:02:40.859Z,7.43
2022-12-27T01:05:10.363Z,7.80
2022-12-27T01:07:39.067Z,7.73
2022-12-27T01:10:08.742Z,8.37
2022-12-27T01:12:38.069Z,8.13
2022-12-27T01:15:08.950Z,7.43
2022-12-27T01:17:37.458Z,6.93
2022-12-27T01:20:09.305Z,7.43
2022-12-27T01:22:37.879Z,7.43
2022-12-27T01:25:08.114Z,6.93
2022-12-27T01:27:37.019Z,7.30
2022-12-27T01:30:06.633Z,7.00
2022-12-27T01:32:36.127Z,6.37
2022-12-27T01:35:08.856Z,6.87
2022-12-27T01:37:37.378Z,6.80
2022-12-27T01:40:07.634Z,7.27
2022-12-27T01:42:53.612Z,6.63
2022-12-27T01:45:25.216Z,6.80
2022-12-27T01:48:01.005Z,7.10
2022-12-27T01:50:37.916Z,6.83
2022-12-27T01:53:15.105Z,6.43
2022-12-27T01:55:50.097Z,5.97
2022-12-27T01:58:27.151Z,7.03
2022-12-27T02:00:57.304Z,5.80
2022-12-27T02:03:29.471Z,6.10
2022-12-27T02:06:01.312Z,5.80
2022-12-27T02:08:40.296Z,6.60
2022-12-27T02:11:10.531Z,6.40
2022-12-27T02:13:42.667Z,6.77
2022-12-27T02:16:18.247Z,6.20
2022-12-27T02:18:47.873Z,6.00
2022-12-27T02:22:14.210Z,6.07
2022-12-27T02:25:16.873Z,5.70
2022-12-27T02:28:09.975Z,5.67
2022-12-27T02:30:40.909Z,5.87
2022-12-27T02:33:16.640Z,5.37
2022-12-27T02:35:52.362Z,5.00
2022-12-27T02:38:27.366Z,5.83
2022-12-27T02:41:15.229Z,5.57
2022-12-27T02:44:00.916Z,5.27
2022-12-27T02:46:50.602Z,5.13
2022-12-27T02:49:44.469Z,5.40
2022-12-27T02:53:05.844Z,5.40
2022-12-27T02:56:13.784Z,5.80
2022-12-27T02:59:01.156Z,5.33
2022-12-27T03:02:00.917Z,5.60
2022-12-27T03:04:51.123Z,5.40
2022-12-27T03:07:34.032Z,5.83
2022-12-27T03:10:45.002Z,6.13
2022-12-27T03:13:42.691Z,6.27
2022-12-27T03:16:24.202Z,6.33
2022-12-27T03:19:07.153Z,6.13
2022-12-27T03:21:56.684Z,4.67
2022-12-27T03:24:47.321Z,3.67
2022-12-27T03:27:27.824Z,3.00
2022-12-27T03:30:17.188Z,2.27
2022-12-27T03:33:09.144Z,1.90
2022-12-27T03:35:43.982Z,1.27
2022-12-27T03:38:14.017Z,1.10
2022-12-27T03:41:03.706Z,0.90
2022-12-27T03:43:33.489Z,0.60
2022-12-27T03:46:43.789Z,1.17
2022-12-27T03:49:24.377Z,0.90
2022-12-27T03:52:01.235Z,0.87
2022-12-27T03:54:34.326Z,0.90
2022-12-27T03:57:08.423Z,1.10
2022-12-27T03:59:36.963Z,0.90
2022-12-27T04:02:06.988Z,0.70
2022-12-27T04:04:35.694Z,0.90
2022-12-27T04:07:06.021Z,0.80
2022-12-27T04:09:51.973Z,1.03
2022-12-27T04:12:38.603Z,0.97
2022-12-27T04:15:25.245Z,1.20
2022-12-27T04:18:11.013Z,1.00
2022-12-27T04:20:56.953Z,0.90
2022-12-27T04:23:43.948Z,1.17
2022-12-27T04:26:29.979Z,0.77
2022-12-27T04:29:15.924Z,0.63
2022-12-27T04:32:01.546Z,0.90
2022-12-27T04:34:42.830Z,0.80
2022-12-27T04:37:13.759Z,1.20
2022-12-27T04:40:04.019Z,0.90
2022-12-27T04:42:49.988Z,1.00
2022-12-27T04:45:35.837Z,1.17
2022-12-27T04:48:22.385Z,0.90
2022-12-27T04:51:08.320Z,1.00
2022-12-27T04:53:53.975Z,0.80
2022-12-27T04:56:23.800Z,1.50
2022-12-27T04:59:06.053Z,1.50
2022-12-27T05:01:52.133Z,1.40
2022-12-27T05:04:20.920Z,1.80
2022-12-27T05:06:49.480Z,0.87
2022-12-27T05:09:35.667Z,1.23
2022-12-27T05:12:23.193Z,1.10
2022-12-27T05:14:51.685Z,0.97
2022-12-27T05:17:20.164Z,1.27
2022-12-27T05:19:48.658Z,1.00
2022-12-27T05:22:34.209Z,0.90
2022-12-27T05:25:19.915Z,0.93
2022-12-27T05:27:49.726Z,1.33
2022-12-27T05:30:18.284Z,1.40
2022-12-27T05:32:46.722Z,1.20
2022-12-27T05:35:15.266Z,1.17
2022-12-27T05:37:43.685Z,1.20
2022-12-27T05:40:13.676Z,2.07
2022-12-27T05:42:42.212Z,1.30
2022-12-27T05:45:12.291Z,0.93
2022-12-27T05:47:40.727Z,1.83
2022-12-27T05:50:10.875Z,1.57
2022-12-27T05:52:41.240Z,2.03
2022-12-27T05:55:10.921Z,1.63
2022-12-27T05:57:39.710Z,1.10
2022-12-27T06:00:10.464Z,1.23
2022-12-27T06:02:40.854Z,1.10
2022-12-27T06:05:10.933Z,1.47
2022-12-27T06:07:40.308Z,1.50
2022-12-27T06:10:10.401Z,1.50
2022-12-27T06:12:39.443Z,1.50
2022-12-27T06:15:09.189Z,2.03
2022-12-27T06:17:39.027Z,1.70
2022-12-27T06:20:08.699Z,2.17
2022-12-27T06:22:37.137Z,2.23
2022-12-27T06:25:09.693Z,1.80
2022-12-27T06:27:41.060Z,1.70
2022-12-27T06:30:12.207Z,1.93
2022-12-27T06:32:42.101Z,1.77
2022-12-27T06:35:11.337Z,1.70
2022-12-27T06:37:39.842Z,1.63
2022-12-27T06:40:09.912Z,1.67
2022-12-27T06:42:38.333Z,1.70
2022-12-27T06:45:09.555Z,1.70
2022-12-27T06:47:38.107Z,1.83
2022-12-27T06:50:09.063Z,1.70
2022-12-27T06:52:37.536Z,1.60
2022-12-27T06:55:06.690Z,1.83
2022-12-27T06:57:35.202Z,1.70
2022-12-27T07:00:04.611Z,1.83
2022-12-27T07:02:33.148Z,2.87
2022-12-27T07:05:01.900Z,2.33
2022-12-27T07:07:31.796Z,1.70
2022-12-27T07:10:00.349Z,2.30
2022-12-27T07:12:34.696Z,2.23
2022-12-27T07:15:05.898Z,1.90
2022-12-27T07:17:36.721Z,2.07
2022-12-27T07:20:05.909Z,2.03
2022-12-27T07:22:35.770Z,2.20
2022-12-27T07:25:04.369Z,1.87
2022-12-27T07:27:35.239Z,2.50
2022-12-27T07:30:06.385Z,1.90
2022-12-27T07:32:34.951Z,2.17
2022-12-27T07:35:03.796Z,2.80
2022-12-27T07:37:32.248Z,2.83
2022-12-27T07:40:02.061Z,2.33
2022-12-27T07:42:30.551Z,2.07
2022-12-27T07:44:59.235Z,2.70
2022-12-27T07:47:28.308Z,2.13
2022-12-27T07:49:56.914Z,2.33
2022-12-27T07:52:27.406Z,2.10
2022-12-27T07:54:55.818Z,2.53
2022-12-27T07:57:25.671Z,2.00
2022-12-27T07:59:54.057Z,2.20
2022-12-27T08:02:22.552Z,2.60
2022-12-27T08:04:51.013Z,2.30
2022-12-27T08:07:21.244Z,2.60
2022-12-27T08:09:50.553Z,2.00
2022-12-27T08:12:19.020Z,2.50
2022-12-27T08:14:48.783Z,2.17
2022-12-27T08:17:22.164Z,2.37
2022-12-27T08:19:53.388Z,2.83
2022-12-27T08:22:22.661Z,2.40
2022-12-27T08:24:51.237Z,2.70
2022-12-27T08:27:23.305Z,2.60
2022-12-27T08:29:53.059Z,3.13
2022-12-27T08:32:21.452Z,2.53
2022-12-27T08:34:49.853Z,2.70
2022-12-27T08:37:18.461Z,2.33
2022-12-27T08:39:46.811Z,2.83
2022-12-27T08:42:15.456Z,2.47
2022-12-27T08:44:44.135Z,2.63
2022-12-27T08:47:13.904Z,2.67
2022-12-27T08:49:42.250Z,2.93
2022-12-27T08:52:10.758Z,2.63
2022-12-27T08:54:39.346Z,2.13
2022-12-27T08:57:07.928Z,2.43
2022-12-27T08:59:36.516Z,2.87
2022-12-27T09:02:05.007Z,2.40
2022-12-27T09:04:34.905Z,2.50
2022-12-27T09:07:05.112Z,2.33
2022-12-27T09:09:33.540Z,2.40
2022-12-27T09:12:04.036Z,2.40
2022-12-27T09:14:36.453Z,3.17
2022-12-27T09:17:06.266Z,2.60
2022-12-27T09:19:36.125Z,2.63
2022-12-27T09:22:04.587Z,2.63
2022-12-27T09:24:32.978Z,2.90
2022-12-27T09:27:01.577Z,2.53
2022-12-27T09:29:30.329Z,2.30
2022-12-27T09:31:58.746Z,3.10
2022-12-27T09:34:27.113Z,2.60
2022-12-27T09:36:56.893Z,2.63
2022-12-27T09:39:25.366Z,2.73
2022-12-27T09:44:58.268Z,2.80
2022-12-27T09:47:32.994Z,2.23
2022-12-27T09:50:06.151Z,2.30
2022-12-27T09:52:41.390Z,2.57
2022-12-27T09:55:17.367Z,2.50
2022-12-27T09:57:47.428Z,2.70
2022-12-27T10:00:19.723Z,2.73
2022-12-27T10:03:07.412Z,2.57
2022-12-27T10:05:39.554Z,2.93
2022-12-27T10:08:31.023Z,2.50
2022-12-27T10:11:31.167Z,2.87
2022-12-27T10:14:07.196Z,2.57
2022-12-27T10:16:46.948Z,3.93
2022-12-27T10:19:30.561Z,2.40
2022-12-27T10:22:14.137Z,3.30
2022-12-27T10:24:50.493Z,3.10
2022-12-27T10:27:24.874Z,3.67
2022-12-27T10:29:55.888Z,3.07
2022-12-27T10:32:24.702Z,3.23
2022-12-27T10:35:01.950Z,3.17
2022-12-27T10:37:31.440Z,3.43
2022-12-27T10:40:12.549Z,3.53
2022-12-27T10:42:46.997Z,2.77
2022-12-27T10:45:36.546Z,3.20
2022-12-27T10:48:21.543Z,3.20
2022-12-27T10:50:55.633Z,4.40
2022-12-27T10:53:40.435Z,3.40
2022-12-27T10:56:15.376Z,3.83
2022-12-27T10:58:50.301Z,3.43
2022-12-27T11:01:26.170Z,3.67
2022-12-27T11:04:20.122Z,3.70
2022-12-27T11:06:53.179Z,3.33
2022-12-27T11:09:32.069Z,3.83
2022-12-27T11:12:23.866Z,3.00
2022-12-27T11:14:59.341Z,2.83
2022-12-27T11:17:36.567Z,3.00
2022-12-27T11:20:21.847Z,2.60
2022-12-27T11:22:55.037Z,2.33
2022-12-27T11:25:24.404Z,2.40
2022-12-27T11:27:58.976Z,2.40
2022-12-27T11:30:32.313Z,3.43
2022-12-27T11:33:06.575Z,2.80
2022-12-27T11:35:48.088Z,3.50
2022-12-27T11:38:25.595Z,3.33
2022-12-27T11:41:02.548Z,2.60
2022-12-27T11:43:36.962Z,2.77
2022-12-27T11:46:11.208Z,2.60
2022-12-27T11:48:45.487Z,2.57
2022-12-27T11:51:47.766Z,2.50
2022-12-27T11:54:37.529Z,2.20
2022-12-27T11:57:20.456Z,2.50
2022-12-27T12:00:01.576Z,2.20
2022-12-27T12:02:45.820Z,2.47
2022-12-27T12:05:55.712Z,2.43
2022-12-27T12:09:00.779Z,2.03
2022-12-27T12:11:55.141Z,2.20
2022-12-27T12:14:56.315Z,2.30
2022-12-27T12:17:56.670Z,2.70
2022-12-27T12:20:51.001Z,2.43
2022-12-27T12:23:38.293Z,2.30
2022-12-27T12:26:17.793Z,2.50
2022-12-27T12:29:26.291Z,2.40
2022-12-27T12:32:34.924Z,2.40
2022-12-27T12:35:38.276Z,2.67
2022-12-27T12:38:21.221Z,2.67
2022-12-27T12:41:20.787Z,2.40
2022-12-27T12:44:25.854Z,2.97
2022-12-27T12:47:06.059Z,2.97
2022-12-27T12:50:01.336Z,2.73
2022-12-27T12:53:12.465Z,3.10
2022-12-27T12:55:59.960Z,3.33
2022-12-27T12:58:49.332Z,2.90
2022-12-27T13:01:39.658Z,3.00
2022-12-27T13:04:41.170Z,2.70
2022-12-27T13:07:42.321Z,3.17
2022-12-27T13:10:57.696Z,3.50
2022-12-27T13:13:40.897Z,3.50
2022-12-27T13:16:21.888Z,3.27
2022-12-27T13:19:05.413Z,3.07
2022-12-27T13:21:52.964Z,3.50
2022-12-27T13:24:32.431Z,3.43
2022-12-27T13:27:17.428Z,3.80
2022-12-27T13:30:07.227Z,4.27
2022-12-27T13:33:08.579Z,3.57
2022-12-27T13:35:55.450Z,3.57
2022-12-27T13:38:42.570Z,3.97
2022-12-27T13:41:38.965Z,3.73
2022-12-27T13:44:42.859Z,4.03
2022-12-27T13:48:07.035Z,3.50
2022-12-27T13:51:13.965Z,3.80
2022-12-27T13:54:30.692Z,3.60
2022-12-27T13:57:15.056Z,4.00
2022-12-27T14:00:14.614Z,3.80
2022-12-27T14:03:36.203Z,4.57
2022-12-27T14:06:44.926Z,4.63
2022-12-27T14:09:40.517Z,4.03
2022-12-27T14:12:51.461Z,3.87
2022-12-27T14:15:24.622Z,4.07
2022-12-27T14:18:22.176Z,4.60
2022-12-27T14:21:29.982Z,3.80
2022-12-27T14:24:12.565Z,4.60
2022-12-27T14:27:16.726Z,3.90
2022-12-27T14:30:24.195Z,4.10
2022-12-27T14:33:47.529Z,4.40
2022-12-27T14:37:21.274Z,4.00
2022-12-27T14:40:34.461Z,3.80
2022-12-27T14:44:02.871Z,4.77
2022-12-27T14:47:29.422Z,4.37
2022-12-27T14:51:19.815Z,5.13
2022-12-27T14:54:38.777Z,4.27
2022-12-27T14:57:22.789Z,4.77
2022-12-27T15:00:00.868Z,5.40
2022-12-27T15:03:03.034Z,5.10
2022-12-27T15:05:56.453Z,5.50
2022-12-27T15:08:50.478Z,4.53
2022-12-27T15:11:52.516Z,4.83
2022-12-27T15:14:48.532Z,4.73
2022-12-27T15:17:35.622Z,4.33
2022-12-27T15:20:33.372Z,4.53
2022-12-27T15:23:19.012Z,5.03
2022-12-27T15:26:04.024Z,4.63
2022-12-27T15:28:49.621Z,4.30
2022-12-27T15:31:30.668Z,4.33
2022-12-27T15:34:20.377Z,4.40
2022-12-27T15:36:52.015Z,4.40
2022-12-27T15:39:51.069Z,4.63
2022-12-27T15:42:49.095Z,4.43
2022-12-27T15:45:37.935Z,4.67
2022-12-27T15:49:00.986Z,4.67
2022-12-27T15:51:38.175Z,4.07
2022-12-27T15:54:32.017Z,4.40
2022-12-27T15:57:37.332Z,4.70
2022-12-27T16:00:28.692Z,4.53
2022-12-27T16:03:01.794Z,4.77
2022-12-27T16:05:48.843Z,3.97
2022-12-27T16:08:35.482Z,4.23
2022-12-27T16:11:09.821Z,3.43
2022-12-27T16:13:50.921Z,3.93
2022-12-27T16:16:59.705Z,4.73
2022-12-27T16:20:11.611Z,3.90
2022-12-27T16:22:44.425Z,4.60
2022-12-27T16:25:31.017Z,4.67
2022-12-27T16:28:07.715Z,4.10
2022-12-27T16:30:46.309Z,4.30
2022-12-27T16:33:38.010Z,3.90
2022-12-27T16:36:29.823Z,4.20
2022-12-27T16:39:50.309Z,4.17
2022-12-27T16:42:28.517Z,4.57
2022-12-27T16:45:05.568Z,4.40
2022-12-27T16:47:56.104Z,4.57
2022-12-27T16:50:40.930Z,4.83
2022-12-27T16:53:24.729Z,5.00
2022-12-27T16:56:22.104Z,4.13
2022-12-27T16:58:50.748Z,5.40
2022-12-27T17:02:03.820Z,3.77
2022-12-27T17:04:58.498Z,3.83
2022-12-27T17:08:20.160Z,4.17
2022-12-27T17:11:22.521Z,4.10
2022-12-27T17:13:55.745Z,3.50
2022-12-27T17:16:29.841Z,4.17
2022-12-27T17:19:04.470Z,3.43
2022-12-27T17:21:35.588Z,3.60
2022-12-27T17:24:10.920Z,3.57
2022-12-27T17:27:02.087Z,3.50
2022-12-27T17:30:16.042Z,3.60
2022-12-27T17:33:28.333Z,3.70
2022-12-27T17:36:28.405Z,3.50
2022-12-27T17:39:11.199Z,3.40
2022-12-27T17:42:09.994Z,3.67
2022-12-27T17:44:59.252Z,3.60
2022-12-27T17:48:10.163Z,3.50
2022-12-27T17:50:44.389Z,3.60
2022-12-27T17:53:38.669Z,4.17
2022-12-27T17:56:35.976Z,3.83
2022-12-27T17:59:11.398Z,3.77
2022-12-27T18:01:47.866Z,4.13
2022-12-27T18:04:27.648Z,4.10
2022-12-27T18:06:57.559Z,4.43
2022-12-27T18:09:40.073Z,4.50
2022-12-27T18:12:17.644Z,4.00
2022-12-27T18:14:58.955Z,4.30
2022-12-27T18:17:32.247Z,4.40
2022-12-27T18:20:00.942Z,4.13
2022-12-27T18:22:29.698Z,4.43
2022-12-27T18:25:01.146Z,3.70
2022-12-27T18:27:29.629Z,4.33
2022-12-27T18:29:58.445Z,4.63
2022-12-27T18:32:32.516Z,4.00
2022-12-27T18:35:03.494Z,5.17
2022-12-27T18:37:36.425Z,4.47
2022-12-27T18:40:07.936Z,4.50
2022-12-27T18:42:42.958Z,4.03
2022-12-27T18:45:23.265Z,4.10
2022-12-27T18:47:54.753Z,4.50
2022-12-27T18:50:26.598Z,4.20
2022-12-27T18:53:04.239Z,4.20
2022-12-27T18:55:35.599Z,4.20
2022-12-27T18:58:08.091Z,4.20
2022-12-27T19:00:50.265Z,3.93
2022-12-27T19:03:21.343Z,3.93
2022-12-27T19:06:06.566Z,3.80
2022-12-27T19:08:39.139Z,4.00
2022-12-27T19:11:09.605Z,4.07
2022-12-27T19:13:48.570Z,4.07
2022-12-27T19:16:25.392Z,4.50
2022-12-27T19:18:57.593Z,4.10
2022-12-27T19:21:33.433Z,4.40
2022-12-27T19:24:21.513Z,3.80
2022-12-27T19:26:51.830Z,3.97
2022-12-27T19:29:22.763Z,3.87
2022-12-27T19:31:57.927Z,4.00
2022-12-27T19:34:29.836Z,4.40
2022-12-27T19:36:59.168Z,4.10
2022-12-27T19:39:32.695Z,4.20
2022-12-27T19:42:06.597Z,4.10
2022-12-27T19:44:35.684Z,3.50
2022-12-27T19:47:04.134Z,3.70
2022-12-27T19:49:43.013Z,4.00
2022-12-27T19:52:18.787Z,4.30
2022-12-27T19:54:47.752Z,4.50
2022-12-27T19:57:18.358Z,4.27
2022-12-27T19:59:46.762Z,4.33
2022-12-27T20:02:15.303Z,3.57
2022-12-27T20:04:43.732Z,4.63
2022-12-27T20:07:19.284Z,4.83
2022-12-27T20:09:47.677Z,4.23
2022-12-27T20:12:19.679Z,4.40
2022-12-27T20:14:48.442Z,4.50
2022-12-27T20:17:17.032Z,4.60
2022-12-27T20:22:14.073Z,4.07
2022-12-27T20:24:42.583Z,4.50
2022-12-27T20:27:11.289Z,4.33
2022-12-27T20:29:41.159Z,5.07
2022-12-27T20:32:09.632Z,4.30
2022-12-27T20:34:38.113Z,4.60
2022-12-27T20:37:07.235Z,5.23
2022-12-27T20:39:35.676Z,4.50
2022-12-27T20:42:04.171Z,4.90
2022-12-27T20:44:32.592Z,4.50
2022-12-27T20:47:02.438Z,4.27
2022-12-27T20:49:31.126Z,4.67
2022-12-27T20:51:59.534Z,4.87
2022-12-27T20:54:27.981Z,4.73
2022-12-27T20:56:56.530Z,5.10
2022-12-27T20:59:25.064Z,4.77
2022-12-27T21:01:57.264Z,5.43
2022-12-27T21:04:27.832Z,4.80
2022-12-27T21:06:56.439Z,4.50
2022-12-27T21:09:25.048Z,4.70
2022-12-27T21:11:54.006Z,5.73
2022-12-27T21:14:22.610Z,4.17
2022-12-27T21:16:51.302Z,4.20
2022-12-27T21:19:20.055Z,4.80
2022-12-27T21:21:49.959Z,4.07
2022-12-27T21:24:18.464Z,4.73
2022-12-27T21:26:47.842Z,4.07
2022-12-27T21:29:19.599Z,4.50
2022-12-27T21:31:48.060Z,4.50
2022-12-27T21:34:16.794Z,4.30
2022-12-27T21:36:45.464Z,4.40
2022-12-27T21:39:16.068Z,4.70
2022-12-27T21:41:44.778Z,4.47
2022-12-27T21:44:13.608Z,3.83
2022-12-27T21:46:43.879Z,4.40
2022-12-27T21:49:14.728Z,5.10
2022-12-27T21:51:46.544Z,4.70
2022-12-27T21:54:16.490Z,4.67
2022-12-27T21:56:45.296Z,5.37
2022-12-27T21:59:14.094Z,5.10
2022-12-27T22:01:51.485Z,4.47
2022-12-27T22:04:21.669Z,4.20
2022-12-27T22:06:50.726Z,4.27
2022-12-27T22:09:20.908Z,4.63
2022-12-27T22:11:49.598Z,4.67
2022-12-27T22:14:23.365Z,4.27
2022-12-27T22:16:53.780Z,4.37
2022-12-27T22:19:22.383Z,4.20
2022-12-27T22:21:50.675Z,3.70
2022-12-27T22:24:20.532Z,3.90
2022-12-27T22:26:50.466Z,4.23
2022-12-27T22:29:19.038Z,3.93
2022-12-27T22:31:47.473Z,3.90
2022-12-27T22:34:15.983Z,4.00
2022-12-27T22:36:44.481Z,3.97
2022-12-27T22:39:12.897Z,4.10
2022-12-27T22:41:42.697Z,4.07
2022-12-27T22:44:14.318Z,3.50
2022-12-27T22:47:25.187Z,4.00
2022-12-27T22:49:32.068Z,3.77
2022-12-27T22:52:00.443Z,4.30
2022-12-27T22:55:03.461Z,4.10
2022-12-27T22:57:18.698Z,3.73
2022-12-27T22:59:47.126Z,4.13
2022-12-27T23:02:15.800Z,4.77
2022-12-27T23:04:44.493Z,4.10
2022-12-27T23:07:13.021Z,4.70
2022-12-27T23:09:43.731Z,3.60
2022-12-27T23:12:12.833Z,4.63
2022-12-27T23:14:42.761Z,4.17
2022-12-27T23:17:11.283Z,4.90
2022-12-27T23:19:39.757Z,4.23
2022-12-27T23:22:08.287Z,4.87
2022-12-27T23:24:37.163Z,4.17
2022-12-27T23:27:05.819Z,4.80
2022-12-27T23:29:34.275Z,4.17
2022-12-27T23:32:04.401Z,4.20
2022-12-27T23:34:32.864Z,4.37
2022-12-27T23:37:01.586Z,4.00
2022-12-27T23:39:30.171Z,4.73
2022-12-27T23:41:58.816Z,4.63
2022-12-27T23:44:33.022Z,4.30
2022-12-27T23:47:05.917Z,4.40
2022-12-27T23:49:35.000Z,3.90
2022-12-27T23:52:04.021Z,3.80
2022-12-27T23:54:32.659Z,4.40
2022-12-27T23:57:22.011Z,4.60
2022-12-27T23:59:50.085Z,4.67
